createdAt,value
2023-02-16T00:02:59.185Z,42.90
2023-02-16T00:06:00.764Z,42.80
2023-02-16T00:09:02.406Z,49.37
2023-02-16T00:12:31.711Z,41.57
2023-02-16T00:15:33.369Z,47.63
2023-02-16T00:18:34.968Z,46.40
2023-02-16T00:21:36.558Z,44.47
2023-02-16T00:24:38.227Z,40.97
2023-02-16T00:27:40.051Z,34.60
2023-02-16T00:30:41.809Z,43.97
2023-02-16T00:33:43.368Z,51.93
2023-02-16T00:36:45.139Z,43.17
2023-02-16T00:39:46.877Z,47.03
2023-02-16T00:42:48.619Z,65.17
2023-02-16T00:45:50.239Z,77.60
2023-02-16T00:48:51.852Z,46.97
2023-02-16T00:51:53.592Z,46.13
2023-02-16T00:54:55.590Z,42.77
2023-02-16T00:58:03.014Z,48.83
2023-02-16T01:01:09.764Z,51.93
2023-02-16T01:04:14.379Z,54.80
2023-02-16T01:07:35.329Z,48.07
2023-02-16T01:10:56.499Z,43.93
2023-02-16T01:13:58.350Z,55.40
2023-02-16T01:16:59.915Z,52.67
2023-02-16T01:20:03.941Z,46.47
2023-02-16T01:23:08.990Z,49.00
2023-02-16T01:26:12.726Z,45.70
2023-02-16T01:29:16.008Z,42.43
2023-02-16T01:32:17.740Z,46.00
2023-02-16T01:35:19.443Z,42.73
2023-02-16T01:38:22.384Z,45.93
2023-02-16T01:41:27.035Z,49.90
2023-02-16T01:44:31.886Z,41.40
2023-02-16T01:47:39.419Z,62.80
2023-02-16T01:51:04.267Z,48.37
2023-02-16T01:54:30.604Z,49.33
2023-02-16T01:57:32.223Z,43.80
2023-02-16T02:00:49.195Z,48.60
2023-02-16T02:04:09.380Z,43.00
2023-02-16T02:07:14.403Z,41.93
2023-02-16T02:10:21.254Z,44.30
2023-02-16T02:13:34.335Z,41.37
2023-02-16T02:16:36.205Z,44.37
2023-02-16T02:19:47.989Z,56.43
2023-02-16T02:23:27.093Z,57.17
2023-02-16T02:26:47.660Z,58.53
2023-02-16T02:29:50.280Z,51.50
2023-02-16T02:32:55.743Z,43.87
2023-02-16T02:36:00.549Z,48.60
2023-02-16T02:39:24.888Z,45.63
2023-02-16T02:42:51.735Z,46.13
2023-02-16T02:46:03.807Z,41.97
2023-02-16T02:49:05.461Z,46.03
2023-02-16T02:52:07.239Z,42.00
2023-02-16T02:55:28.330Z,40.03
2023-02-16T02:58:50.651Z,43.57
2023-02-16T03:01:55.158Z,37.50
2023-02-16T03:04:57.620Z,43.47
2023-02-16T03:08:06.609Z,43.37
2023-02-16T03:11:53.266Z,41.60
2023-02-16T03:14:56.458Z,46.80
2023-02-16T03:18:17.889Z,47.70
2023-02-16T03:21:38.166Z,54.53
2023-02-16T03:24:58.296Z,51.20
2023-02-16T03:28:19.951Z,49.97
2023-02-16T03:31:23.739Z,50.40
2023-02-16T03:34:26.009Z,53.77
2023-02-16T03:37:27.715Z,46.83
2023-02-16T03:40:33.303Z,51.67
2023-02-16T03:43:34.937Z,51.23
2023-02-16T03:46:36.552Z,44.90
2023-02-16T03:49:38.131Z,47.87
2023-02-16T03:52:39.719Z,53.83
2023-02-16T03:55:42.698Z,48.87
2023-02-16T03:58:44.246Z,56.03
2023-02-16T04:01:45.963Z,55.57
2023-02-16T04:04:47.576Z,54.73
2023-02-16T04:07:49.236Z,49.23
2023-02-16T04:10:50.931Z,53.17
2023-02-16T04:13:52.647Z,53.63
2023-02-16T04:16:56.041Z,51.60
2023-02-16T04:19:57.648Z,57.63
2023-02-16T04:22:59.264Z,57.30
2023-02-16T04:26:00.959Z,56.07
2023-02-16T04:29:02.667Z,51.80
2023-02-16T04:32:04.913Z,52.27
2023-02-16T04:35:07.260Z,57.13
2023-02-16T04:38:08.943Z,48.00
2023-02-16T04:41:10.578Z,52.57
2023-02-16T04:44:12.264Z,50.77
2023-02-16T04:47:14.348Z,42.43
2023-02-16T04:50:16.171Z,43.03
2023-02-16T04:53:17.914Z,56.57
2023-02-16T04:56:19.664Z,62.73
2023-02-16T04:59:21.353Z,61.80
2023-02-16T05:02:22.938Z,56.83
2023-02-16T05:05:24.643Z,51.70
2023-02-16T05:08:26.485Z,54.13
2023-02-16T05:11:46.872Z,56.10
2023-02-16T05:14:48.715Z,61.50
2023-02-16T05:17:50.529Z,56.03
2023-02-16T05:21:10.684Z,57.97
2023-02-16T05:24:15.743Z,60.33
2023-02-16T05:27:18.871Z,60.87
2023-02-16T05:30:20.907Z,68.83
2023-02-16T05:33:22.668Z,63.63
2023-02-16T05:36:24.578Z,62.63
2023-02-16T05:39:26.307Z,62.60
2023-02-16T05:42:27.946Z,62.73
2023-02-16T05:45:29.664Z,63.90
2023-02-16T05:48:31.456Z,66.20
2023-02-16T05:51:33.432Z,60.47
2023-02-16T05:54:35.124Z,56.87
2023-02-16T05:57:36.758Z,66.10
2023-02-16T06:00:39.673Z,62.77
2023-02-16T06:03:41.466Z,60.67
2023-02-16T06:06:44.059Z,74.50
2023-02-16T06:09:45.634Z,70.03
2023-02-16T06:12:47.236Z,90.47
2023-02-16T06:15:51.428Z,95.07
2023-02-16T06:18:53.912Z,80.67
2023-02-16T06:21:55.561Z,72.60
2023-02-16T06:24:57.155Z,72.70
2023-02-16T06:27:58.749Z,64.60
2023-02-16T06:31:00.473Z,70.53
2023-02-16T06:34:03.825Z,76.67
2023-02-16T06:37:05.580Z,71.80
2023-02-16T06:40:09.980Z,60.07
2023-02-16T06:43:11.527Z,59.77
2023-02-16T06:46:13.185Z,66.63
2023-02-16T06:49:18.126Z,85.10
2023-02-16T06:52:20.188Z,80.70
2023-02-16T06:55:21.859Z,97.80
2023-02-16T06:58:23.507Z,140.20
2023-02-16T07:01:26.176Z,61.83
2023-02-16T07:04:27.947Z,72.13
2023-02-16T07:07:29.689Z,71.97
2023-02-16T07:10:43.922Z,55.77
2023-02-16T07:13:51.177Z,59.07
2023-02-16T07:16:52.828Z,52.23
2023-02-16T07:19:54.703Z,54.13
2023-02-16T07:22:56.459Z,51.97
2023-02-16T07:25:58.190Z,55.27
2023-02-16T07:28:59.844Z,58.90
2023-02-16T07:32:02.277Z,52.73
2023-02-16T07:35:04.420Z,41.50
2023-02-16T07:38:06.235Z,42.43
2023-02-16T07:41:09.889Z,49.60
2023-02-16T07:44:11.894Z,63.40
2023-02-16T07:47:14.533Z,83.07
2023-02-16T07:50:16.617Z,69.53
2023-02-16T07:53:18.525Z,61.67
2023-02-16T07:56:24.836Z,60.60
2023-02-16T07:59:26.509Z,74.83
2023-02-16T08:02:28.272Z,67.00
2023-02-16T08:05:30.032Z,74.53
2023-02-16T08:08:31.843Z,77.67
2023-02-16T08:11:33.468Z,113.03
2023-02-16T08:14:35.114Z,91.20
2023-02-16T08:17:36.812Z,91.27
2023-02-16T08:20:57.680Z,97.43
2023-02-16T08:24:00.209Z,92.67
2023-02-16T08:27:05.243Z,85.80
2023-02-16T08:30:12.668Z,91.03
2023-02-16T08:33:14.377Z,106.37
2023-02-16T08:36:35.316Z,94.23
2023-02-16T08:39:37.130Z,60.00
2023-02-16T08:42:38.772Z,141.40
2023-02-16T08:45:44.249Z,136.43
2023-02-16T08:48:45.902Z,114.87
2023-02-16T08:51:48.783Z,60.10
2023-02-16T08:54:50.496Z,55.70
2023-02-16T08:57:52.096Z,54.80
2023-02-16T09:00:54.096Z,59.87
2023-02-16T09:03:55.751Z,61.13
2023-02-16T09:06:58.498Z,54.93
2023-02-16T09:10:00.169Z,54.23
2023-02-16T09:13:01.980Z,57.03
2023-02-16T09:16:05.399Z,51.77
2023-02-16T09:19:07.460Z,50.20
2023-02-16T09:22:09.060Z,57.87
2023-02-16T09:25:11.455Z,60.03
2023-02-16T09:28:13.895Z,48.07
2023-02-16T09:31:27.320Z,51.97
2023-02-16T09:34:29.960Z,50.37
2023-02-16T09:37:33.090Z,50.83
2023-02-16T09:40:36.245Z,59.50
2023-02-16T09:44:10.445Z,44.40
2023-02-16T09:47:21.266Z,40.00
2023-02-16T09:50:50.223Z,47.80
2023-02-16T09:53:50.678Z,48.87
2023-02-16T09:56:56.345Z,41.07
2023-02-16T10:00:07.501Z,57.23
2023-02-16T10:03:13.325Z,41.40
2023-02-16T10:06:31.111Z,45.23
2023-02-16T10:09:33.442Z,50.07
2023-02-16T10:12:40.232Z,41.93
2023-02-16T10:15:44.037Z,45.03
2023-02-16T10:18:49.446Z,57.53
2023-02-16T10:21:54.050Z,49.07
2023-02-16T10:24:59.723Z,47.87
2023-02-16T10:28:08.277Z,50.20
2023-02-16T10:31:15.749Z,48.43
2023-02-16T10:34:21.369Z,43.00
2023-02-16T10:37:27.550Z,39.03
2023-02-16T10:40:32.029Z,39.23
2023-02-16T10:43:34.186Z,50.27
2023-02-16T10:46:38.997Z,32.67
2023-02-16T10:49:40.841Z,33.60
2023-02-16T10:52:42.648Z,30.77
2023-02-16T10:55:44.482Z,35.57
2023-02-16T10:58:46.904Z,35.17
2023-02-16T11:01:50.413Z,40.13
2023-02-16T11:04:53.485Z,27.77
2023-02-16T11:08:01.741Z,27.77
2023-02-16T11:11:09.413Z,57.23
2023-02-16T11:14:30.449Z,26.60
2023-02-16T11:17:32.899Z,25.17
2023-02-16T11:20:34.706Z,25.07
2023-02-16T11:23:40.769Z,18.87
2023-02-16T11:26:42.962Z,22.53
2023-02-16T11:29:44.791Z,18.13
2023-02-16T11:32:46.525Z,18.40
2023-02-16T11:35:48.601Z,33.67
2023-02-16T11:38:58.291Z,18.30
2023-02-16T11:42:01.282Z,19.53
2023-02-16T11:45:03.967Z,19.80
2023-02-16T11:48:12.435Z,24.53
2023-02-16T11:51:19.261Z,26.23
2023-02-16T11:54:20.972Z,33.87
2023-02-16T11:57:23.797Z,23.07
2023-02-16T12:00:26.876Z,18.73
2023-02-16T12:03:31.103Z,18.13
2023-02-16T12:06:36.211Z,20.63
2023-02-16T12:09:56.945Z,24.43
2023-02-16T12:13:24.896Z,20.77
2023-02-16T12:16:41.967Z,21.20
2023-02-16T12:19:43.662Z,19.93
2023-02-16T12:22:49.943Z,16.90
2023-02-16T12:25:51.531Z,17.10
2023-02-16T12:29:11.714Z,30.23
2023-02-16T12:32:16.140Z,25.13
2023-02-16T12:35:33.663Z,20.40
2023-02-16T12:38:44.656Z,24.50
2023-02-16T12:41:52.495Z,19.13
2023-02-16T12:44:56.237Z,19.77
2023-02-16T12:47:59.246Z,21.90
2023-02-16T12:51:02.822Z,22.20
2023-02-16T12:54:10.585Z,16.97
2023-02-16T12:57:17.542Z,14.67
2023-02-16T13:00:21.810Z,13.73
2023-02-16T13:03:32.598Z,15.00
2023-02-16T13:06:41.148Z,15.93
2023-02-16T13:09:42.764Z,19.87
2023-02-16T13:12:50.399Z,13.33
2023-02-16T13:15:55.450Z,17.50
2023-02-16T13:18:57.241Z,15.07
2023-02-16T13:21:58.920Z,16.40
2023-02-16T13:25:22.220Z,15.93
2023-02-16T13:28:42.971Z,17.77
2023-02-16T13:32:03.710Z,15.30
2023-02-16T13:35:14.836Z,17.70
2023-02-16T13:38:17.780Z,14.90
2023-02-16T13:41:45.001Z,18.63
2023-02-16T13:44:51.992Z,20.77
2023-02-16T13:47:54.389Z,17.87
2023-02-16T13:51:04.473Z,22.97
2023-02-16T13:54:07.219Z,25.00
2023-02-16T13:57:18.480Z,19.60
2023-02-16T14:00:28.496Z,21.07
2023-02-16T14:03:38.180Z,16.40
2023-02-16T14:06:42.720Z,16.83
2023-02-16T14:09:47.793Z,17.90
2023-02-16T14:12:50.048Z,19.17
2023-02-16T14:15:52.756Z,20.97
2023-02-16T14:18:54.466Z,34.00
2023-02-16T14:21:56.117Z,29.43
2023-02-16T14:24:59.908Z,20.00
2023-02-16T14:28:07.083Z,29.43
2023-02-16T14:31:14.886Z,21.03
2023-02-16T14:34:31.317Z,22.30
2023-02-16T14:37:56.356Z,23.90
2023-02-16T14:40:59.541Z,31.60
2023-02-16T14:44:04.189Z,27.03
2023-02-16T14:47:05.732Z,33.47
2023-02-16T14:50:15.284Z,34.13
2023-02-16T14:53:43.334Z,35.77
2023-02-16T14:56:57.328Z,46.13
2023-02-16T15:00:04.826Z,39.10
2023-02-16T15:03:22.258Z,34.63
2023-02-16T15:06:28.376Z,43.40
2023-02-16T15:09:31.548Z,48.47
2023-02-16T15:12:34.548Z,42.93
2023-02-16T15:15:47.197Z,47.40
2023-02-16T15:18:50.169Z,36.47
2023-02-16T15:22:10.653Z,36.93
2023-02-16T15:25:27.824Z,36.17
2023-02-16T15:28:30.948Z,38.17
2023-02-16T15:31:34.153Z,30.07
2023-02-16T15:34:36.212Z,39.20
2023-02-16T15:37:40.427Z,70.70
2023-02-16T15:40:42.216Z,63.67
2023-02-16T15:43:45.413Z,75.77
2023-02-16T15:46:48.361Z,76.47
2023-02-16T15:49:50.558Z,68.90
2023-02-16T15:52:54.102Z,71.97
2023-02-16T15:55:56.119Z,74.50
2023-02-16T15:58:58.534Z,77.27
2023-02-16T16:02:09.977Z,87.33
2023-02-16T16:05:22.202Z,93.33
2023-02-16T16:08:26.282Z,96.83
2023-02-16T16:11:28.255Z,90.40
2023-02-16T16:14:31.217Z,86.53
2023-02-16T16:17:34.182Z,86.53
2023-02-16T16:20:37.911Z,89.23
2023-02-16T16:23:39.556Z,89.40
2023-02-16T16:26:50.528Z,92.30
2023-02-16T16:29:52.152Z,95.13
2023-02-16T16:32:59.883Z,83.73
2023-02-16T16:36:10.771Z,106.73
2023-02-16T16:39:18.740Z,70.70
2023-02-16T16:42:23.711Z,100.83
2023-02-16T16:45:34.906Z,64.37
2023-02-16T16:48:37.322Z,71.53
2023-02-16T16:51:40.489Z,61.30
2023-02-16T16:54:42.675Z,67.70
2023-02-16T16:57:44.307Z,64.73
2023-02-16T17:00:45.967Z,77.50
2023-02-16T17:03:47.644Z,82.43
2023-02-16T17:06:49.332Z,82.57
2023-02-16T17:09:51.026Z,80.07
2023-02-16T17:12:54.850Z,73.10
2023-02-16T17:16:04.739Z,77.93
2023-02-16T17:19:06.488Z,71.20
2023-02-16T17:22:18.787Z,72.83
2023-02-16T17:25:20.679Z,78.27
2023-02-16T17:28:22.426Z,100.27
2023-02-16T17:31:24.178Z,98.50
2023-02-16T17:34:29.525Z,76.57
2023-02-16T17:37:35.229Z,75.50
2023-02-16T17:40:37.496Z,82.07
2023-02-16T17:43:39.120Z,79.90
2023-02-16T17:46:40.766Z,66.47
2023-02-16T17:49:42.555Z,69.10
2023-02-16T17:52:44.758Z,67.20
2023-02-16T17:55:47.465Z,59.80
2023-02-16T17:58:49.549Z,63.37
2023-02-16T18:01:51.157Z,64.87
2023-02-16T18:04:52.789Z,69.57
2023-02-16T18:07:55.418Z,59.57
2023-02-16T18:11:02.030Z,61.67
2023-02-16T18:14:03.713Z,81.73
2023-02-16T18:17:06.919Z,61.17
2023-02-16T18:20:10.296Z,64.50
2023-02-16T18:23:12.093Z,59.13
2023-02-16T18:26:14.801Z,52.43
2023-02-16T18:29:16.909Z,67.03
2023-02-16T18:32:18.535Z,91.20
2023-02-16T18:35:20.262Z,74.57
2023-02-16T18:38:22.448Z,55.20
2023-02-16T18:41:24.131Z,47.20
2023-02-16T18:44:25.820Z,60.93
2023-02-16T18:47:27.439Z,56.70
2023-02-16T18:50:29.088Z,54.30
2023-02-16T18:53:30.738Z,75.20
2023-02-16T18:56:35.422Z,66.13
2023-02-16T18:59:36.999Z,59.10
2023-02-16T19:02:41.067Z,93.87
2023-02-16T19:05:42.772Z,77.53
2023-02-16T19:08:45.279Z,46.63
2023-02-16T19:11:47.052Z,50.70
2023-02-16T19:14:48.693Z,50.37
2023-02-16T19:17:50.542Z,71.33
2023-02-16T19:20:52.273Z,58.77
2023-02-16T19:23:53.819Z,55.07
2023-02-16T19:26:58.412Z,49.30
2023-02-16T19:30:00.134Z,46.60
2023-02-16T19:33:01.957Z,52.03
2023-02-16T19:36:08.637Z,52.67
2023-02-16T19:39:12.135Z,43.93
2023-02-16T19:42:13.774Z,48.20
2023-02-16T19:45:25.771Z,41.40
2023-02-16T19:48:31.985Z,45.90
2023-02-16T19:51:33.964Z,40.63
2023-02-16T19:54:35.958Z,38.57
2023-02-16T19:57:37.543Z,33.70
2023-02-16T20:00:39.157Z,42.07
2023-02-16T20:03:41.107Z,46.93
2023-02-16T20:06:43.296Z,44.57
2023-02-16T20:09:44.965Z,43.37
2023-02-16T20:12:46.578Z,43.83
2023-02-16T20:15:48.230Z,36.40
2023-02-16T20:18:49.835Z,51.60
2023-02-16T20:21:51.508Z,39.27
2023-02-16T20:24:53.132Z,34.67
2023-02-16T20:27:56.036Z,36.97
2023-02-16T20:30:57.734Z,36.40
2023-02-16T20:33:59.441Z,45.50
2023-02-16T20:37:01.146Z,37.57
2023-02-16T20:40:02.835Z,43.70
2023-02-16T20:43:04.431Z,45.63
2023-02-16T20:46:07.433Z,42.17
2023-02-16T20:49:09.369Z,48.10
2023-02-16T20:52:11.399Z,46.07
2023-02-16T20:55:13.367Z,46.30
2023-02-16T20:58:15.290Z,37.90
2023-02-16T21:01:16.923Z,43.13
2023-02-16T21:04:18.795Z,43.77
2023-02-16T21:07:20.426Z,35.57
2023-02-16T21:10:22.057Z,45.50
2023-02-16T21:13:23.688Z,53.17
2023-02-16T21:16:25.559Z,42.73
2023-02-16T21:19:27.169Z,32.37
2023-02-16T21:22:28.799Z,29.97
2023-02-16T21:25:31.181Z,31.33
2023-02-16T21:28:33.600Z,36.80
2023-02-16T21:31:35.250Z,36.37
2023-02-16T21:34:37.065Z,38.17
2023-02-16T21:37:39.271Z,34.37
2023-02-16T21:40:59.443Z,34.90
2023-02-16T21:44:05.350Z,32.87
2023-02-16T21:47:25.587Z,30.47
2023-02-16T21:50:28.046Z,29.23
2023-02-16T21:53:30.607Z,31.30
2023-02-16T21:56:36.918Z,30.60
2023-02-16T21:59:38.551Z,30.57
2023-02-16T22:02:40.435Z,31.70
2023-02-16T22:05:42.262Z,29.80
2023-02-16T22:08:43.897Z,32.93
2023-02-16T22:11:45.999Z,31.93
2023-02-16T22:14:47.711Z,29.07
2023-02-16T22:17:49.576Z,27.00
2023-02-16T22:20:51.218Z,33.57
2023-02-16T22:23:53.107Z,36.17
2023-02-16T22:26:54.725Z,30.43
2023-02-16T22:29:56.355Z,26.07
2023-02-16T22:32:57.958Z,28.13
2023-02-16T22:36:05.580Z,26.33
2023-02-16T22:39:07.673Z,25.93
2023-02-16T22:42:09.430Z,20.73
2023-02-16T22:45:11.066Z,28.30
2023-02-16T22:48:12.694Z,28.63
2023-02-16T22:51:15.158Z,28.17
2023-02-16T22:54:16.778Z,25.60
2023-02-16T22:57:18.808Z,24.90
2023-02-16T23:00:20.481Z,23.50
2023-02-16T23:03:22.222Z,22.87
2023-02-16T23:06:25.632Z,24.03
2023-02-16T23:09:27.286Z,25.20
2023-02-16T23:12:28.900Z,24.33
2023-02-16T23:15:30.635Z,24.93
2023-02-16T23:18:32.323Z,27.20
2023-02-16T23:21:33.959Z,28.37
2023-02-16T23:24:35.544Z,24.33
2023-02-16T23:27:37.216Z,27.43
2023-02-16T23:30:41.674Z,28.67
2023-02-16T23:33:43.327Z,23.30
2023-02-16T23:36:45.475Z,29.60
2023-02-16T23:39:47.022Z,30.77
2023-02-16T23:42:48.591Z,20.33
2023-02-16T23:45:50.263Z,19.97
2023-02-16T23:48:51.916Z,25.00
2023-02-16T23:51:53.531Z,23.40
2023-02-16T23:54:55.155Z,22.07
2023-02-16T23:57:56.868Z,22.07
